createdAt,value
2018-04-19T00:00:02.588Z,78.68
2018-04-19T00:02:02.795Z,78.3
2018-04-19T00:03:02.770Z,79.06
2018-04-19T00:04:02.748Z,78.97
2018-04-19T00:05:02.482Z,79.06
2018-04-19T00:06:02.717Z,78.97
2018-04-19T00:07:02.686Z,78.78
2018-04-19T00:08:02.659Z,78.3
2018-04-19T00:09:02.687Z,78.3
2018-04-19T00:10:02.623Z,77.63
2018-04-19T00:11:02.350Z,77.06
2018-04-19T00:12:02.329Z,77.15
2018-04-19T00:13:02.309Z,76.77
2018-04-19T00:14:02.541Z,76.23
2018-04-19T00:15:02.265Z,76.2
2018-04-19T00:16:02.501Z,76.1
2018-04-19T00:17:02.475Z,75.52
2018-04-19T00:18:02.200Z,75.43
2018-04-19T00:19:02.435Z,75.14
2018-04-19T00:20:02.407Z,75.43
2018-04-19T00:21:02.135Z,75.18
2018-04-19T00:22:02.121Z,75.09
2018-04-19T00:23:02.345Z,74.9
2018-04-19T00:24:02.316Z,74.9
2018-04-19T00:25:02.307Z,74.41
2018-04-19T00:26:02.272Z,74.41
2018-04-19T00:27:02.252Z,73.94
2018-04-19T00:28:02.235Z,73.94
2018-04-19T00:29:01.964Z,74.04
2018-04-19T00:30:02.193Z,73.94
2018-04-19T00:31:02.174Z,74.04
2018-04-19T00:32:02.148Z,73.94
2018-04-19T00:33:01.879Z,73.65
2018-04-19T00:34:02.108Z,73.46
2018-04-19T00:35:02.083Z,73.65
2018-04-19T00:36:02.065Z,73.23
2018-04-19T00:37:02.045Z,73.43
2018-04-19T00:38:01.771Z,73.52
2018-04-19T00:39:01.999Z,73.14
2018-04-19T00:40:01.977Z,73.52
2018-04-19T00:41:01.955Z,73.23
2018-04-19T00:42:01.933Z,73.33
2018-04-19T00:43:01.919Z,73.43
2018-04-19T00:44:01.889Z,73.23
2018-04-19T00:45:01.867Z,73.33
2018-04-19T00:46:01.844Z,73.23
2018-04-19T00:47:01.831Z,73.33
2018-04-19T00:48:01.802Z,73.23
2018-04-19T00:49:01.787Z,73.61
2018-04-19T00:50:01.810Z,73.33
2018-04-19T00:51:01.739Z,73.14
2018-04-19T00:52:01.715Z,72.94
2018-04-19T00:53:01.701Z,72.94
2018-04-19T00:54:01.677Z,72.94
2018-04-19T00:55:01.654Z,72.56
2018-04-19T00:56:01.629Z,72.94
2018-04-19T00:57:01.610Z,73.04
2018-04-19T00:58:01.337Z,72.94
2018-04-19T00:59:01.563Z,72.75
2018-04-19T01:00:01.543Z,72.75
2018-04-19T01:01:01.521Z,72.75
2018-04-19T01:02:01.501Z,72.94
2018-04-19T01:03:01.477Z,73.14
2018-04-19T01:04:01.457Z,72.94
2018-04-19T01:05:01.437Z,72.56
2018-04-19T01:06:01.166Z,72.66
2018-04-19T01:07:01.390Z,72.56
2018-04-19T01:08:01.366Z,73.04
2018-04-19T01:09:01.350Z,73.04
2018-04-19T01:10:01.324Z,73.04
2018-04-19T01:11:01.308Z,73.04
2018-04-19T01:12:01.279Z,72.94
2018-04-19T01:13:01.255Z,73.04
2018-04-19T01:14:00.988Z,72.94
2018-04-19T01:15:00.967Z,73
2018-04-19T01:16:00.944Z,72.72
2018-04-19T01:17:00.923Z,72.85
2018-04-19T01:18:01.152Z,72.91
2018-04-19T01:19:00.880Z,72.81
2018-04-19T01:20:01.115Z,73.1
2018-04-19T01:21:01.084Z,73.29
2018-04-19T01:22:01.064Z,73.19
2018-04-19T01:23:01.038Z,73.48
2018-04-19T01:24:00.770Z,73.29
2018-04-19T01:25:01.009Z,73.39
2018-04-19T01:26:00.974Z,73
2018-04-19T01:27:00.949Z,73.48
2018-04-19T01:28:00.930Z,73.1
2018-04-19T01:29:00.907Z,73.19
2018-04-19T01:30:00.893Z,73.1
2018-04-19T01:31:00.907Z,73.39
2018-04-19T01:32:00.841Z,73.39
2018-04-19T01:33:00.820Z,73.39
2018-04-19T01:34:00.801Z,73.1
2018-04-19T01:35:00.777Z,73.19
2018-04-19T01:36:00.755Z,73.58
2018-04-19T01:37:00.733Z,73.58
2018-04-19T01:38:00.463Z,73.86
2018-04-19T01:39:00.700Z,73.67
2018-04-19T01:40:00.668Z,73.96
2018-04-19T01:41:00.645Z,74.15
2018-04-19T01:42:00.622Z,73.67
2018-04-19T01:43:00.600Z,74.05
2018-04-19T01:44:00.579Z,74.34
2018-04-19T01:45:00.556Z,74.15
2018-04-19T01:46:00.536Z,74.63
2018-04-19T01:47:00.263Z,74.73
2018-04-19T01:48:00.489Z,74.63
2018-04-19T01:49:00.467Z,74.82
2018-04-19T01:50:00.446Z,75.1
2018-04-19T01:51:00.421Z,75.01
2018-04-19T01:52:00.401Z,75.64
2018-04-19T01:53:00.389Z,75.1
2018-04-19T01:54:00.108Z,75.35
2018-04-19T01:55:00.333Z,75.54
2018-04-19T01:56:00.310Z,75.35
2018-04-19T01:57:00.292Z,75.93
2018-04-19T01:58:00.026Z,75.83
2018-04-19T01:59:00.249Z,76.12
2018-04-19T02:00:00.225Z,76.03
2018-04-19T02:01:00.199Z,76.21
2018-04-19T02:02:00.187Z,76.03
2018-04-19T02:02:59.908Z,76.31
2018-04-19T02:04:00.133Z,76.5
2018-04-19T02:05:00.109Z,76.6
2018-04-19T02:06:00.088Z,76.6
2018-04-19T02:07:00.067Z,77.08
2018-04-19T02:08:00.055Z,77.17
2018-04-19T02:08:59.772Z,77.17
2018-04-19T02:09:59.999Z,77.17
2018-04-19T02:10:59.729Z,77.36
2018-04-19T02:11:59.707Z,77.36
2018-04-19T02:12:59.684Z,77.36
2018-04-19T02:13:59.909Z,77.84
2018-04-19T02:14:59.891Z,77.74
2018-04-19T02:15:59.877Z,77.74
2018-04-19T02:16:59.847Z,77.61
2018-04-19T02:17:59.943Z,77.61
2018-04-19T02:18:59.802Z,77.99
2018-04-19T02:19:59.777Z,77.89
2018-04-19T02:20:59.751Z,77.99
2018-04-19T02:21:59.740Z,78.09
2018-04-19T02:22:59.713Z,78.09
2018-04-19T02:23:59.686Z,78.28
2018-04-19T02:24:59.665Z,78.28
2018-04-19T02:25:59.645Z,78.09
2018-04-19T02:26:59.630Z,78.28
2018-04-19T02:27:59.602Z,78.66
2018-04-19T02:28:59.575Z,78.56
2018-04-19T02:29:59.553Z,78.66
2018-04-19T02:30:59.527Z,78.28
2018-04-19T02:31:59.506Z,78.28
2018-04-19T02:32:59.485Z,78.94
2018-04-19T02:33:59.461Z,78.66
2018-04-19T02:34:59.439Z,79.23
2018-04-19T02:35:59.416Z,78.66
2018-04-19T02:36:59.407Z,79.52
2018-04-19T02:37:59.369Z,79.8
2018-04-19T02:38:59.349Z,79.61
2018-04-19T02:39:59.338Z,79.43
2018-04-19T02:40:59.304Z,79.14
2018-04-19T02:41:59.287Z,79.43
2018-04-19T02:42:59.260Z,79.52
2018-04-19T02:43:59.234Z,79.52
2018-04-19T02:44:59.219Z,79.43
2018-04-19T02:45:59.198Z,79.67
2018-04-19T02:46:59.165Z,79.86
2018-04-19T02:47:59.144Z,79.43
2018-04-19T02:48:59.124Z,79.23
2018-04-19T02:49:59.107Z,79.99
2018-04-19T02:50:59.075Z,79.57
2018-04-19T02:51:59.055Z,79.43
2018-04-19T02:52:59.033Z,79.86
2018-04-19T02:53:59.010Z,79.9
2018-04-19T02:54:58.995Z,79.86
2018-04-19T02:55:58.714Z,79.67
2018-04-19T02:56:58.940Z,80.09
2018-04-19T02:57:58.915Z,80.53
2018-04-19T02:58:58.902Z,80.81
2018-04-19T02:59:58.867Z,80.24
2018-04-19T03:00:58.859Z,80.28
2018-04-19T03:01:58.588Z,80.85
2018-04-19T03:02:58.805Z,80.33
2018-04-19T03:03:58.786Z,80.62
2018-04-19T03:04:58.756Z,80.62
2018-04-19T03:05:58.734Z,80.53
2018-04-19T03:06:58.713Z,80.62
2018-04-19T03:07:58.690Z,80.72
2018-04-19T03:08:58.664Z,80.72
2018-04-19T03:09:58.647Z,80.62
2018-04-19T03:10:58.743Z,80.62
2018-04-19T03:11:58.596Z,80.76
2018-04-19T03:12:58.573Z,80.57
2018-04-19T03:13:58.549Z,80.53
2018-04-19T03:14:58.275Z,80.66
2018-04-19T03:15:58.254Z,80.66
2018-04-19T03:16:58.482Z,79.9
2018-04-19T03:17:58.457Z,80.33
2018-04-19T03:18:58.432Z,80.28
2018-04-19T03:19:58.412Z,80.19
2018-04-19T03:20:58.388Z,80.85
2018-04-19T03:21:58.366Z,80.28
2018-04-19T03:22:58.343Z,80.38
2018-04-19T03:23:58.320Z,79.9
2018-04-19T03:24:58.299Z,80.38
2018-04-19T03:25:58.270Z,79.61
2018-04-19T03:26:58.251Z,79.8
2018-04-19T03:27:58.230Z,79.8
2018-04-19T03:28:58.234Z,79.9
2018-04-19T03:29:58.187Z,79.77
2018-04-19T03:30:58.168Z,79.71
2018-04-19T03:31:57.889Z,79.71
2018-04-19T03:32:58.112Z,79.61
2018-04-19T03:33:58.093Z,79.61
2018-04-19T03:34:58.071Z,79.52
2018-04-19T03:35:58.046Z,79.23
2018-04-19T03:36:58.026Z,79.1
2018-04-19T03:37:58.006Z,79.14
2018-04-19T03:38:57.975Z,79.19
2018-04-19T03:39:57.952Z,79.33
2018-04-19T03:40:57.928Z,79.52
2018-04-19T03:41:57.915Z,79.43
2018-04-19T03:42:57.882Z,79.28
2018-04-19T03:43:57.865Z,79.28
2018-04-19T03:44:57.836Z,79.1
2018-04-19T03:45:57.816Z,79.28
2018-04-19T03:46:57.798Z,79.19
2018-04-19T03:47:57.772Z,79.28
2018-04-19T03:48:57.497Z,79.57
2018-04-19T03:49:57.722Z,79.14
2018-04-19T03:50:57.457Z,79
2018-04-19T03:51:57.676Z,78.81
2018-04-19T03:52:57.655Z,79
2018-04-19T03:53:57.716Z,78.94
2018-04-19T03:54:57.607Z,78.52
2018-04-19T03:55:57.582Z,78.52
2018-04-19T03:56:57.567Z,78.52
2018-04-19T03:57:57.288Z,78.23
2018-04-19T03:58:57.515Z,78.62
2018-04-19T03:59:57.490Z,78.81
2018-04-19T04:00:57.477Z,78.81
2018-04-19T04:01:57.457Z,78.91
2018-04-19T04:02:57.419Z,79
2018-04-19T04:03:57.399Z,78.81
2018-04-19T04:04:57.378Z,78.62
2018-04-19T04:05:57.110Z,78.81
2018-04-19T04:06:57.341Z,79
2018-04-19T04:07:57.311Z,78.91
2018-04-19T04:08:57.383Z,79.28
2018-04-19T04:09:57.261Z,79.28
2018-04-19T04:10:57.240Z,79.38
2018-04-19T04:11:57.220Z,79.48
2018-04-19T04:12:56.943Z,79.19
2018-04-19T04:13:57.283Z,79.1
2018-04-19T04:14:57.147Z,79.57
2018-04-19T04:15:57.167Z,79.48
2018-04-19T04:16:57.100Z,79.96
2018-04-19T04:17:57.084Z,79.96
2018-04-19T04:18:57.060Z,80.01
2018-04-19T04:19:57.032Z,79.67
2018-04-19T04:20:57.008Z,79.86
2018-04-19T04:21:56.985Z,80.53
2018-04-19T04:22:56.964Z,80.53
2018-04-19T04:23:56.938Z,80.15
2018-04-19T04:24:56.665Z,80.43
2018-04-19T04:25:56.888Z,80.33
2018-04-19T04:26:56.871Z,80.33
2018-04-19T04:27:56.595Z,80.33
2018-04-19T04:28:56.820Z,80.15
2018-04-19T04:29:56.802Z,79.86
2018-04-19T04:30:56.770Z,79.96
2018-04-19T04:31:56.747Z,80.05
2018-04-19T04:32:56.480Z,79.86
2018-04-19T04:33:56.703Z,79.96
2018-04-19T04:34:56.704Z,79.86
2018-04-19T04:35:56.659Z,79.67
2018-04-19T04:36:56.629Z,80.05
2018-04-19T04:37:56.608Z,79.96
2018-04-19T04:38:56.586Z,79.57
2018-04-19T04:39:56.566Z,79.57
2018-04-19T04:40:56.542Z,79.48
2018-04-19T04:41:56.515Z,79.48
2018-04-19T04:42:56.494Z,79.77
2018-04-19T04:43:56.473Z,79.1
2018-04-19T04:44:56.445Z,79.28
2018-04-19T04:45:56.420Z,79.48
2018-04-19T04:46:56.155Z,79.38
2018-04-19T04:47:56.393Z,79.28
2018-04-19T04:48:56.361Z,79.28
2018-04-19T04:49:56.329Z,79.28
2018-04-19T04:50:56.305Z,79.19
2018-04-19T04:51:56.293Z,79.48
2018-04-19T04:52:56.269Z,79
2018-04-19T04:53:56.020Z,79.1
2018-04-19T04:54:56.225Z,78.72
2018-04-19T04:55:56.198Z,78.72
2018-04-19T04:56:56.169Z,79
2018-04-19T04:57:55.897Z,78.52
2018-04-19T04:58:56.124Z,78.52
2018-04-19T04:59:56.101Z,78.52
2018-04-19T05:00:56.281Z,78.62
2018-04-19T05:01:56.052Z,78.43
2018-04-19T05:02:56.033Z,78.33
2018-04-19T05:03:56.007Z,78.23
2018-04-19T05:04:55.982Z,78.52
2018-04-19T05:05:55.961Z,77.95
2018-04-19T05:06:55.938Z,78.14
2018-04-19T05:07:55.920Z,77.8
2018-04-19T05:08:55.895Z,77.28
2018-04-19T05:09:55.866Z,77.42
2018-04-19T05:10:55.846Z,77.51
2018-04-19T05:11:55.820Z,77.61
2018-04-19T05:12:55.802Z,77.28
2018-04-19T05:13:55.529Z,77.23
2018-04-19T05:14:55.756Z,76.94
2018-04-19T05:15:55.733Z,77.13
2018-04-19T05:16:55.716Z,76.94
2018-04-19T05:17:55.685Z,76.94
2018-04-19T05:18:55.664Z,76.84
2018-04-19T05:19:55.390Z,76.94
2018-04-19T05:20:55.619Z,76.56
2018-04-19T05:21:55.599Z,76.65
2018-04-19T05:22:55.578Z,76.56
2018-04-19T05:23:55.301Z,76.37
2018-04-19T05:24:55.527Z,76.56
2018-04-19T05:25:55.563Z,76.46
2018-04-19T05:26:55.481Z,76.56
2018-04-19T05:27:55.210Z,76.08
2018-04-19T05:28:55.434Z,75.98
2018-04-19T05:29:55.414Z,75.98
2018-04-19T05:30:55.392Z,76.18
2018-04-19T05:31:55.376Z,76.08
2018-04-19T05:32:55.346Z,75.79
2018-04-19T05:33:55.320Z,75.42
2018-04-19T05:34:55.299Z,75.22
2018-04-19T05:35:55.279Z,75.13
2018-04-19T05:36:55.258Z,74.78
2018-04-19T05:37:55.235Z,75.13
2018-04-19T05:38:55.212Z,75.26
2018-04-19T05:39:55.190Z,74.88
2018-04-19T05:40:55.167Z,75.16
2018-04-19T05:41:54.897Z,74.69
2018-04-19T05:42:55.126Z,74.69
2018-04-19T05:43:55.099Z,74.78
2018-04-19T05:44:55.076Z,74.59
2018-04-19T05:45:55.057Z,74.11
2018-04-19T05:46:55.035Z,74.3
2018-04-19T05:47:55.006Z,74.11
2018-04-19T05:48:54.986Z,73.92
2018-04-19T05:49:54.715Z,73.92
2018-04-19T05:50:54.696Z,74.11
2018-04-19T05:51:56.187Z,74.11
2018-04-19T05:52:55.877Z,73.73
2018-04-19T05:53:55.867Z,73.83
2018-04-19T05:54:55.890Z,73.16
2018-04-19T05:55:56.478Z,73.19
2018-04-19T05:56:55.360Z,73.29
2018-04-19T05:57:55.772Z,73.29
2018-04-19T05:58:54.768Z,73.58
2018-04-19T05:59:54.549Z,72.81
2018-04-19T06:00:54.842Z,72.72
2018-04-19T06:01:54.456Z,72.72
2018-04-19T06:02:55.683Z,72.81
2018-04-19T06:03:54.658Z,72.43
2018-04-19T06:04:54.638Z,72.62
2018-04-19T06:05:54.617Z,72.53
2018-04-19T06:06:54.346Z,72.28
2018-04-19T06:07:54.574Z,72.47
2018-04-19T06:08:54.549Z,71.89
2018-04-19T06:09:54.530Z,71.8
2018-04-19T06:10:54.507Z,71.51
2018-04-19T06:11:54.666Z,71.61
2018-04-19T06:12:54.467Z,71.89
2018-04-19T06:13:54.444Z,71.8
2018-04-19T06:14:54.427Z,70.94
2018-04-19T06:15:54.402Z,71.13
2018-04-19T06:16:54.382Z,71.42
2018-04-19T06:17:54.388Z,70.5
2018-04-19T06:18:54.339Z,70.4
2018-04-19T06:19:54.321Z,70.11
2018-04-19T06:20:54.301Z,69.73
2018-04-19T06:21:54.276Z,69.64
2018-04-19T06:22:54.256Z,69.19
2018-04-19T06:23:54.238Z,68.62
2018-04-19T06:24:54.021Z,68.04
2018-04-19T06:25:54.197Z,68.42
2018-04-19T06:26:55.279Z,67.76
2018-04-19T06:27:54.160Z,68.07
2018-04-19T06:28:54.139Z,67.31
2018-04-19T06:29:53.871Z,67.69
2018-04-19T06:30:54.108Z,67.11
2018-04-19T06:31:54.084Z,67.02
2018-04-19T06:32:53.813Z,66.74
2018-04-19T06:33:54.056Z,66.45
2018-04-19T06:34:53.778Z,66.48
2018-04-19T06:35:54.051Z,66.38
2018-04-19T06:36:53.996Z,66.48
2018-04-19T06:37:53.977Z,66.77
2018-04-19T06:38:53.959Z,66.48
2018-04-19T06:39:53.944Z,66.09
2018-04-19T06:40:53.675Z,66.19
2018-04-19T06:41:53.908Z,65.42
2018-04-19T06:42:53.642Z,65.75
2018-04-19T06:43:53.870Z,65.17
2018-04-19T06:44:54.101Z,64.98
2018-04-19T06:45:53.839Z,64.79
2018-04-19T06:46:53.577Z,64.4
2018-04-19T06:47:53.960Z,64.4
2018-04-19T06:48:53.794Z,64.31
2018-04-19T06:49:53.778Z,64.5
2018-04-19T06:50:53.760Z,64.22
2018-04-19T06:51:53.746Z,64.4
2018-04-19T06:52:53.729Z,64.05
2018-04-19T06:53:53.710Z,63.57
2018-04-19T06:54:53.700Z,63.29
2018-04-19T06:55:53.685Z,63.38
2018-04-19T06:56:53.664Z,63.09
2018-04-19T06:57:53.651Z,62.93
2018-04-19T06:58:53.643Z,62.36
2018-04-19T06:59:53.614Z,62.07
2018-04-19T07:00:53.355Z,61.59
2018-04-19T07:01:53.586Z,60.85
2018-04-19T07:02:53.576Z,60.38
2018-04-19T07:03:53.308Z,60.47
2018-04-19T07:04:53.537Z,59.44
2018-04-19T07:05:53.752Z,59.06
2018-04-19T07:06:53.758Z,58.87
2018-04-19T07:07:53.498Z,58.32
2018-04-19T07:08:53.493Z,57.17
2018-04-19T07:09:53.222Z,56.78
2018-04-19T07:10:53.460Z,56.3
2018-04-19T07:11:53.338Z,56.04
2018-04-19T07:12:53.444Z,55.46
2018-04-19T07:13:53.414Z,54.79
2018-04-19T07:14:53.404Z,54.5
2018-04-19T07:15:54.347Z,53.86
2018-04-19T07:16:53.382Z,53.86
2018-04-19T07:17:53.362Z,54.05
2018-04-19T07:18:53.346Z,53.19
2018-04-19T07:19:53.333Z,52.89
2018-04-19T07:20:53.141Z,52.99
2018-04-19T07:21:53.309Z,52.42
2018-04-19T07:22:53.296Z,52.34
2018-04-19T07:23:53.284Z,52.44
2018-04-19T07:24:53.539Z,51.67
2018-04-19T07:25:53.444Z,51.67
2018-04-19T07:26:53.242Z,50.81
2018-04-19T07:27:53.330Z,50.99
2018-04-19T07:28:52.971Z,50.73
2018-04-19T07:29:53.253Z,50.25
2018-04-19T07:30:53.192Z,49.77
2018-04-19T07:31:53.184Z,49.77
2018-04-19T07:32:52.992Z,49.58
2018-04-19T07:33:53.156Z,49.38
2018-04-19T07:34:52.898Z,49.12
2018-04-19T07:35:53.142Z,49.12
2018-04-19T07:36:53.283Z,48.74
2018-04-19T07:37:53.367Z,48.64
2018-04-19T07:38:53.104Z,48.74
2018-04-19T07:39:52.840Z,47.99
2018-04-19T07:40:53.077Z,47.8
2018-04-19T07:41:53.123Z,47.7
2018-04-19T07:42:53.057Z,47.22
2018-04-19T07:43:53.055Z,47.6
2018-04-19T07:44:52.784Z,47.12
2018-04-19T07:45:52.775Z,47.12
2018-04-19T07:46:53.014Z,46.55
2018-04-19T07:47:53.002Z,46.56
2018-04-19T07:48:52.989Z,46.37
2018-04-19T07:49:52.982Z,46.18
2018-04-19T07:50:52.973Z,45.79
2018-04-19T07:51:52.962Z,45.41
2018-04-19T07:52:52.951Z,45.24
2018-04-19T07:53:52.943Z,45.34
2018-04-19T07:54:52.941Z,44.95
2018-04-19T07:55:52.922Z,44.85
2018-04-19T07:56:52.914Z,44.37
2018-04-19T07:57:52.918Z,44.66
2018-04-19T07:58:52.890Z,44.37
2018-04-19T07:59:52.883Z,44.37
2018-04-19T08:00:52.876Z,44.56
2018-04-19T08:01:52.873Z,44.37
2018-04-19T08:02:52.855Z,44.85
2018-04-19T08:03:52.847Z,45.21
2018-04-19T08:04:52.840Z,45.03
2018-04-19T08:05:52.828Z,44.93
2018-04-19T08:06:52.571Z,45.41
2018-04-19T08:07:52.811Z,45.6
2018-04-19T08:08:52.823Z,45.31
2018-04-19T08:09:52.789Z,45.12
2018-04-19T08:10:52.740Z,45.21
2018-04-19T08:11:52.865Z,45.12
2018-04-19T08:12:53.821Z,45.12
2018-04-19T08:13:52.881Z,45.21
2018-04-19T08:14:52.745Z,45.21
2018-04-19T08:15:52.742Z,45.21
2018-04-19T08:16:52.474Z,45.31
2018-04-19T08:17:52.710Z,45.79
2018-04-19T08:18:52.777Z,45.7
2018-04-19T08:19:52.688Z,45.41
2018-04-19T08:20:52.918Z,45.51
2018-04-19T08:21:52.418Z,45.79
2018-04-19T08:22:52.653Z,46.08
2018-04-19T08:23:52.392Z,46.37
2018-04-19T08:24:52.629Z,46.18
2018-04-19T08:25:52.618Z,46.18
2018-04-19T08:26:52.608Z,46.56
2018-04-19T08:27:52.594Z,46.56
2018-04-19T08:28:52.585Z,46.66
2018-04-19T08:29:52.571Z,46.76
2018-04-19T08:30:52.560Z,47.44
2018-04-19T08:31:52.545Z,46.86
2018-04-19T08:32:52.530Z,47.44
2018-04-19T08:33:52.519Z,47.63
2018-04-19T08:34:52.505Z,47.63
2018-04-19T08:35:52.488Z,47.63
2018-04-19T08:36:52.228Z,47.17
2018-04-19T08:37:52.463Z,47.45
2018-04-19T08:38:52.487Z,46.69
2018-04-19T08:39:52.442Z,46.2
2018-04-19T08:40:52.435Z,45.07
2018-04-19T08:41:52.420Z,43.81
2018-04-19T08:42:52.409Z,42.77
2018-04-19T08:43:52.406Z,42.1
2018-04-19T08:44:52.395Z,41.33
2018-04-19T08:45:52.170Z,40.67
2018-04-19T08:46:52.119Z,39.41
2018-04-19T08:47:52.357Z,38.45
2018-04-19T08:48:52.345Z,38.35
2018-04-19T08:49:52.091Z,37.5
2018-04-19T08:50:52.334Z,36.92
2018-04-19T08:51:52.322Z,36.72
2018-04-19T08:52:52.060Z,36.53
2018-04-19T08:53:52.048Z,36.44
2018-04-19T08:54:52.290Z,36.53
2018-04-19T08:55:52.284Z,36.55
2018-04-19T08:56:52.270Z,36.65
2018-04-19T08:57:52.261Z,36.55
2018-04-19T08:58:52.252Z,37.13
2018-04-19T08:59:52.243Z,37.04
2018-04-19T09:00:52.233Z,37.32
2018-04-19T09:01:51.971Z,37.71
2018-04-19T09:02:52.334Z,37.81
2018-04-19T09:03:52.198Z,38.29
2018-04-19T09:04:52.191Z,38.48
2018-04-19T09:05:52.177Z,38.58
2018-04-19T09:06:52.171Z,38.78
2018-04-19T09:07:51.954Z,38.87
2018-04-19T09:08:51.896Z,38.87
2018-04-19T09:09:52.476Z,38.87
2018-04-19T09:10:52.127Z,39.06
2018-04-19T09:11:52.292Z,38.97
2018-04-19T09:12:51.850Z,38.89
2018-04-19T09:13:52.091Z,39.16
2018-04-19T09:14:52.080Z,39.47
2018-04-19T09:15:52.066Z,39.57
2018-04-19T09:16:51.955Z,39.57
2018-04-19T09:17:52.043Z,39.76
2018-04-19T09:18:52.029Z,39.86
2018-04-19T09:19:52.063Z,39.76
2018-04-19T09:20:52.009Z,39.18
2018-04-19T09:21:51.993Z,38.79
2018-04-19T09:22:52.129Z,38.7
2018-04-19T09:23:51.975Z,38.23
2018-04-19T09:24:51.958Z,37.75
2018-04-19T09:25:51.947Z,36.88
2018-04-19T09:26:52.064Z,36.4
2018-04-19T09:27:51.730Z,35.42
2018-04-19T09:28:51.906Z,34.65
2018-04-19T09:29:51.899Z,34.28
2018-04-19T09:30:51.885Z,33.8
2018-04-19T09:31:51.870Z,33.12
2018-04-19T09:32:51.858Z,32.64
2018-04-19T09:33:51.846Z,32.24
2018-04-19T09:34:51.837Z,31.86
2018-04-19T09:35:51.823Z,31.47
2018-04-19T09:36:51.822Z,31.47
2018-04-19T09:37:51.797Z,31.1
2018-04-19T09:38:51.788Z,31.1
2018-04-19T09:39:51.771Z,30.81
2018-04-19T09:40:51.766Z,30.62
2018-04-19T09:41:51.746Z,30.23
2018-04-19T09:42:51.785Z,30.05
2018-04-19T09:43:51.478Z,29.74
2018-04-19T09:44:51.721Z,29.66
2018-04-19T09:45:51.873Z,29.57
2018-04-19T09:46:51.695Z,29.08
2018-04-19T09:47:51.725Z,28.59
2018-04-19T09:48:51.665Z,28.02
2018-04-19T09:49:51.749Z,27.43
2018-04-19T09:50:51.644Z,26.95
2018-04-19T09:51:51.640Z,26.76
2018-04-19T09:52:51.617Z,26.46
2018-04-19T09:53:51.508Z,26.86
2018-04-19T09:54:51.692Z,26.18
2018-04-19T09:55:51.579Z,26.09
2018-04-19T09:56:51.578Z,26.18
2018-04-19T09:57:51.557Z,25.99
2018-04-19T09:58:51.545Z,25.7
2018-04-19T09:59:51.534Z,25.6
2018-04-19T10:00:51.520Z,25.12
2018-04-19T10:01:51.685Z,25.51
2018-04-19T10:02:51.500Z,25.31
2018-04-19T10:03:51.485Z,25.21
2018-04-19T10:04:51.690Z,24.16
2018-04-19T10:05:51.838Z,24.24
2018-04-19T10:06:51.447Z,23.96
2018-04-19T10:07:51.439Z,24.16
2018-04-19T10:08:51.427Z,23.77
2018-04-19T10:09:51.167Z,23.68
2018-04-19T10:10:51.409Z,23.19
2018-04-19T10:11:51.390Z,23.38
2018-04-19T10:12:51.382Z,23.09
2018-04-19T10:13:51.376Z,23.19
2018-04-19T10:14:51.358Z,22.8
2018-04-19T10:15:51.473Z,22.61
2018-04-19T10:16:51.363Z,22.51
2018-04-19T10:17:51.515Z,22.51
2018-04-19T10:18:51.315Z,22.51
2018-04-19T10:19:51.306Z,22.31
2018-04-19T10:20:51.233Z,22.33
2018-04-19T10:21:51.281Z,22.13
2018-04-19T10:22:51.269Z,22.23
2018-04-19T10:23:51.347Z,21.84
2018-04-19T10:24:51.374Z,22.13
2018-04-19T10:25:51.238Z,21.94
2018-04-19T10:26:51.223Z,21.75
2018-04-19T10:27:51.211Z,21.75
2018-04-19T10:28:51.197Z,21.66
2018-04-19T10:29:51.275Z,21.45
2018-04-19T10:30:51.181Z,21.36
2018-04-19T10:31:50.917Z,21.37
2018-04-19T10:32:51.154Z,21.37
2018-04-19T10:33:51.213Z,20.68
2018-04-19T10:34:51.133Z,20.39
2018-04-19T10:35:51.167Z,20.49
2018-04-19T10:36:51.297Z,20.39
2018-04-19T10:37:51.105Z,20.1
2018-04-19T10:38:51.244Z,20.3
2018-04-19T10:39:50.880Z,20.11
2018-04-19T10:40:51.067Z,19.82
2018-04-19T10:41:51.054Z,19.24
2018-04-19T10:42:51.048Z,18.56
2018-04-19T10:43:51.033Z,18.66
2018-04-19T10:44:51.032Z,18.16
2018-04-19T10:45:50.763Z,18.17
2018-04-19T10:46:51.019Z,18.17
2018-04-19T10:47:51.010Z,17.78
2018-04-19T10:48:50.783Z,17.4
2018-04-19T10:49:50.967Z,17.4
2018-04-19T10:50:50.957Z,17.4
2018-04-19T10:51:50.947Z,17.4
2018-04-19T10:52:50.938Z,16.81
2018-04-19T10:53:50.925Z,16.42
2018-04-19T10:54:50.916Z,16.61
2018-04-19T10:55:50.657Z,16.53
2018-04-19T10:56:50.894Z,16.14
2018-04-19T10:57:50.634Z,16.43
2018-04-19T10:58:50.627Z,15.94
2018-04-19T10:59:50.861Z,15.94
2018-04-19T11:00:50.875Z,15.36
2018-04-19T11:01:50.841Z,15.07
2018-04-19T11:02:50.826Z,14.87
2018-04-19T11:03:50.570Z,14.48
2018-04-19T11:04:50.809Z,14.48
2018-04-19T11:05:50.794Z,14.49
2018-04-19T11:06:50.791Z,14.49
2018-04-19T11:07:50.778Z,14.1
2018-04-19T11:08:50.762Z,14.1
2018-04-19T11:09:50.754Z,14.29
2018-04-19T11:10:50.846Z,14.39
2018-04-19T11:11:51.628Z,14.1
2018-04-19T11:12:50.724Z,14.4
2018-04-19T11:13:50.713Z,14.01
2018-04-19T11:14:50.699Z,13.92
2018-04-19T11:15:50.704Z,14.11
2018-04-19T11:16:50.678Z,13.82
2018-04-19T11:17:51.078Z,13.82
2018-04-19T11:18:50.666Z,13.92
2018-04-19T11:19:50.652Z,13.82
2018-04-19T11:20:50.642Z,13.23
2018-04-19T11:21:50.629Z,13.33
2018-04-19T11:22:50.645Z,13.04
2018-04-19T11:23:50.608Z,13.14
2018-04-19T11:24:50.602Z,13.13
2018-04-19T11:25:50.740Z,13.33
2018-04-19T11:26:50.583Z,13.04
2018-04-19T11:27:50.321Z,13.14
2018-04-19T11:28:50.560Z,12.55
2018-04-19T11:29:50.551Z,12.85
2018-04-19T11:30:50.289Z,13.04
2018-04-19T11:31:50.532Z,12.46
2018-04-19T11:32:50.529Z,12.37
2018-04-19T11:33:50.514Z,12.55
2018-04-19T11:34:50.497Z,12.27
2018-04-19T11:35:50.497Z,12.65
2018-04-19T11:36:50.234Z,12.85
2018-04-19T11:37:50.472Z,12.55
2018-04-19T11:38:50.578Z,12.95
2018-04-19T11:39:50.451Z,12.65
2018-04-19T11:40:50.195Z,12.65
2018-04-19T11:41:50.182Z,12.55
2018-04-19T11:42:50.425Z,12.17
2018-04-19T11:43:50.413Z,12.17
2018-04-19T11:44:50.403Z,12.17
2018-04-19T11:45:50.400Z,12.95
2018-04-19T11:46:50.382Z,12.55
2018-04-19T11:47:50.375Z,12.27
2018-04-19T11:48:50.369Z,12.55
2018-04-19T11:49:50.353Z,12.37
2018-04-19T11:50:50.094Z,12.37
2018-04-19T11:51:50.335Z,12.37
2018-04-19T11:52:50.074Z,12.47
2018-04-19T11:53:50.318Z,12.27
2018-04-19T11:54:50.059Z,12.76
2018-04-19T11:55:50.068Z,12.27
2018-04-19T11:56:50.283Z,12.27
2018-04-19T11:57:50.278Z,12.56
2018-04-19T11:58:50.266Z,12.18
2018-04-19T11:59:50.262Z,12.48
2018-04-19T12:00:50.246Z,12.56
2018-04-19T12:01:50.237Z,12.47
2018-04-19T12:02:50.227Z,12.37
2018-04-19T12:03:49.975Z,12.66
2018-04-19T12:04:50.216Z,12.56
2018-04-19T12:05:50.202Z,12.86
2018-04-19T12:06:50.195Z,12.66
2018-04-19T12:07:50.180Z,12.57
2018-04-19T12:08:50.174Z,12.48
2018-04-19T12:09:50.169Z,12.57
2018-04-19T12:10:50.159Z,12.86
2018-04-19T12:11:50.142Z,12.76
2018-04-19T12:12:50.135Z,12.66
2018-04-19T12:13:50.215Z,12.86
2018-04-19T12:14:50.123Z,12.96
2018-04-19T12:15:49.860Z,13.06
2018-04-19T12:16:50.109Z,13.25
2018-04-19T12:17:50.089Z,13.16
2018-04-19T12:18:50.083Z,13.06
2018-04-19T12:19:49.973Z,13.35
2018-04-19T12:20:50.073Z,13.65
2018-04-19T12:21:49.809Z,13.45
2018-04-19T12:22:50.047Z,13.45
2018-04-19T12:23:50.036Z,13.65
2018-04-19T12:24:50.028Z,13.35
2018-04-19T12:25:50.019Z,13.26
2018-04-19T12:26:49.764Z,13.26
2018-04-19T12:27:49.999Z,12.97
2018-04-19T12:28:49.991Z,12.77
2018-04-19T12:29:49.734Z,12.87
2018-04-19T12:30:49.972Z,12.49
2018-04-19T12:31:49.969Z,12.77
2018-04-19T12:32:49.959Z,12.68
2018-04-19T12:33:49.950Z,13.07
2018-04-19T12:34:49.938Z,13.17
2018-04-19T12:35:49.931Z,13.36
2018-04-19T12:36:49.920Z,13.65
2018-04-19T12:37:50.312Z,13.65
2018-04-19T12:38:49.657Z,13.95
2018-04-19T12:39:49.898Z,13.65
2018-04-19T12:40:49.897Z,14.04
2018-04-19T12:41:49.879Z,14.14
2018-04-19T12:42:49.871Z,14.43
2018-04-19T12:43:49.862Z,14.43
2018-04-19T12:44:49.855Z,14.33
2018-04-19T12:45:49.843Z,14.23
2018-04-19T12:46:49.841Z,14.14
2018-04-19T12:47:49.827Z,14.14
2018-04-19T12:48:49.817Z,14.53
2018-04-19T12:49:49.809Z,14.53
2018-04-19T12:50:49.802Z,14.72
2018-04-19T12:51:49.790Z,14.53
2018-04-19T12:52:49.783Z,14.53
2018-04-19T12:53:49.526Z,14.62
2018-04-19T12:54:49.768Z,14.62
2018-04-19T12:55:49.755Z,14.72